sensor_id;sensor_type;location;lat;lon;timestamp;temperature;humidity
48019;DHT22;33786;48.690;9.562;2024-01-30T00:00:26;-0.30;99.90
48019;DHT22;33786;48.690;9.562;2024-01-30T00:02:53;-0.30;99.90
48019;DHT22;33786;48.690;9.562;2024-01-30T00:05:20;-0.30;99.90
48019;DHT22;33786;48.690;9.562;2024-01-30T00:07:47;-0.30;99.90
48019;DHT22;33786;48.690;9.562;2024-01-30T00:10:14;-0.30;99.90
48019;DHT22;33786;48.690;9.562;2024-01-30T00:12:41;-0.30;99.90
48019;DHT22;33786;48.690;9.562;2024-01-30T00:15:07;-0.30;99.90
48019;DHT22;33786;48.690;9.562;2024-01-30T00:17:37;-0.40;99.90
48019;DHT22;33786;48.690;9.562;2024-01-30T00:20:04;-0.30;99.90
48019;DHT22;33786;48.690;9.562;2024-01-30T00:22:36;-0.30;99.90
48019;DHT22;33786;48.690;9.562;2024-01-30T00:25:03;-0.40;99.90
48019;DHT22;33786;48.690;9.562;2024-01-30T00:27:30;-0.30;99.90
48019;DHT22;33786;48.690;9.562;2024-01-30T00:29:57;-0.40;99.90
48019;DHT22;33786;48.690;9.562;2024-01-30T00:32:24;-0.40;99.90
48019;DHT22;33786;48.690;9.562;2024-01-30T00:34:51;-0.40;99.90
48019;DHT22;33786;48.690;9.562;2024-01-30T00:37:18;-0.50;99.90
48019;DHT22;33786;48.690;9.562;2024-01-30T00:39:45;-0.50;99.90
48019;DHT22;33786;48.690;9.562;2024-01-30T00:42:12;-0.50;99.90
48019;DHT22;33786;48.690;9.562;2024-01-30T00:44:39;-0.50;99.90
48019;DHT22;33786;48.690;9.562;2024-01-30T00:47:06;-0.60;99.90
48019;DHT22;33786;48.690;9.562;2024-01-30T00:49:33;-0.60;99.90
48019;DHT22;33786;48.690;9.562;2024-01-30T00:52:00;-0.60;99.90
48019;DHT22;33786;48.690;9.562;2024-01-30T00:54:27;-0.60;99.90
48019;DHT22;33786;48.690;9.562;2024-01-30T00:56:54;-0.60;99.90
48019;DHT22;33786;48.690;9.562;2024-01-30T00:59:21;-0.70;99.90
48019;DHT22;33786;48.690;9.562;2024-01-30T01:01:48;-0.60;99.90
48019;DHT22;33786;48.690;9.562;2024-01-30T01:04:15;-0.60;99.90
48019;DHT22;33786;48.690;9.562;2024-01-30T01:06:42;-0.70;99.90
48019;DHT22;33786;48.690;9.562;2024-01-30T01:09:11;-0.70;99.90
48019;DHT22;33786;48.690;9.562;2024-01-30T01:11:39;-0.70;99.90
48019;DHT22;33786;48.690;9.562;2024-01-30T01:14:06;-0.60;99.90
48019;DHT22;33786;48.690;9.562;2024-01-30T01:16:34;-0.70;99.90
48019;DHT22;33786;48.690;9.562;2024-01-30T01:19:00;-0.70;99.90
48019;DHT22;33786;48.690;9.562;2024-01-30T01:21:28;-0.70;99.90
48019;DHT22;33786;48.690;9.562;2024-01-30T01:23:55;-0.70;99.90
48019;DHT22;33786;48.690;9.562;2024-01-30T01:26:23;-0.70;99.90
48019;DHT22;33786;48.690;9.562;2024-01-30T01:28:50;-0.70;99.90
48019;DHT22;33786;48.690;9.562;2024-01-30T01:31:17;-0.70;99.90
48019;DHT22;33786;48.690;9.562;2024-01-30T01:33:45;-0.70;99.90
48019;DHT22;33786;48.690;9.562;2024-01-30T01:36:13;-0.70;99.90
48019;DHT22;33786;48.690;9.562;2024-01-30T01:38:40;-0.70;99.90
48019;DHT22;33786;48.690;9.562;2024-01-30T01:41:07;-0.60;99.90
48019;DHT22;33786;48.690;9.562;2024-01-30T01:43:34;-0.60;99.90
48019;DHT22;33786;48.690;9.562;2024-01-30T01:46:01;-0.60;99.90
48019;DHT22;33786;48.690;9.562;2024-01-30T01:48:28;-0.60;99.90
48019;DHT22;33786;48.690;9.562;2024-01-30T01:50:56;-0.50;99.90
48019;DHT22;33786;48.690;9.562;2024-01-30T01:53:24;-0.60;99.90
48019;DHT22;33786;48.690;9.562;2024-01-30T01:55:52;-0.60;99.90
48019;DHT22;33786;48.690;9.562;2024-01-30T01:58:20;-0.60;99.90
48019;DHT22;33786;48.690;9.562;2024-01-30T02:00:49;-0.50;99.90
48019;DHT22;33786;48.690;9.562;2024-01-30T02:03:18;-0.60;99.90
48019;DHT22;33786;48.690;9.562;2024-01-30T02:05:48;-0.50;99.90
48019;DHT22;33786;48.690;9.562;2024-01-30T02:08:16;-0.60;99.90
48019;DHT22;33786;48.690;9.562;2024-01-30T02:10:43;-0.70;99.90
48019;DHT22;33786;48.690;9.562;2024-01-30T02:13:09;-0.70;99.90
48019;DHT22;33786;48.690;9.562;2024-01-30T02:15:36;-0.60;99.90
48019;DHT22;33786;48.690;9.562;2024-01-30T02:18:03;0.20;99.90
48019;DHT22;33786;48.690;9.562;2024-01-30T02:20:31;-0.50;99.90
48019;DHT22;33786;48.690;9.562;2024-01-30T02:23:02;-0.50;99.90
48019;DHT22;33786;48.690;9.562;2024-01-30T02:25:34;-0.50;99.90
48019;DHT22;33786;48.690;9.562;2024-01-30T02:28:01;-0.50;99.90
48019;DHT22;33786;48.690;9.562;2024-01-30T02:30:28;-0.50;99.90
48019;DHT22;33786;48.690;9.562;2024-01-30T02:32:55;-0.50;99.90
48019;DHT22;33786;48.690;9.562;2024-01-30T02:35:22;-0.50;99.90
48019;DHT22;33786;48.690;9.562;2024-01-30T02:37:49;-0.50;99.90
48019;DHT22;33786;48.690;9.562;2024-01-30T02:40:16;-0.50;99.90
48019;DHT22;33786;48.690;9.562;2024-01-30T02:42:43;-0.50;99.90
48019;DHT22;33786;48.690;9.562;2024-01-30T02:45:11;-0.50;99.90
48019;DHT22;33786;48.690;9.562;2024-01-30T02:47:39;-0.50;99.90
48019;DHT22;33786;48.690;9.562;2024-01-30T02:50:06;-0.50;99.90
48019;DHT22;33786;48.690;9.562;2024-01-30T02:52:33;-0.50;99.90
48019;DHT22;33786;48.690;9.562;2024-01-30T02:55:01;-0.50;99.90
48019;DHT22;33786;48.690;9.562;2024-01-30T02:57:29;-0.50;99.90
48019;DHT22;33786;48.690;9.562;2024-01-30T02:59:56;-0.50;99.90
48019;DHT22;33786;48.690;9.562;2024-01-30T03:02:22;-0.50;99.90
48019;DHT22;33786;48.690;9.562;2024-01-30T03:04:50;-0.60;99.90
48019;DHT22;33786;48.690;9.562;2024-01-30T03:07:17;-0.60;99.90
48019;DHT22;33786;48.690;9.562;2024-01-30T03:09:44;-0.60;99.90
48019;DHT22;33786;48.690;9.562;2024-01-30T03:12:11;-0.60;99.90
48019;DHT22;33786;48.690;9.562;2024-01-30T03:14:38;-0.60;99.90
48019;DHT22;33786;48.690;9.562;2024-01-30T03:17:05;-0.60;99.90
48019;DHT22;33786;48.690;9.562;2024-01-30T03:19:32;-0.60;99.90
48019;DHT22;33786;48.690;9.562;2024-01-30T03:21:59;-0.60;99.90
48019;DHT22;33786;48.690;9.562;2024-01-30T03:24:26;-0.60;99.90
48019;DHT22;33786;48.690;9.562;2024-01-30T03:26:53;-0.70;99.90
48019;DHT22;33786;48.690;9.562;2024-01-30T03:29:20;-0.70;99.90
48019;DHT22;33786;48.690;9.562;2024-01-30T03:31:47;-0.70;99.90
48019;DHT22;33786;48.690;9.562;2024-01-30T03:34:14;-0.80;99.90
48019;DHT22;33786;48.690;9.562;2024-01-30T03:36:41;-0.80;99.90
48019;DHT22;33786;48.690;9.562;2024-01-30T03:39:08;-0.80;99.90
48019;DHT22;33786;48.690;9.562;2024-01-30T03:41:35;-0.90;99.90
48019;DHT22;33786;48.690;9.562;2024-01-30T03:44:02;-0.90;99.90
48019;DHT22;33786;48.690;9.562;2024-01-30T03:46:28;-0.90;99.90
48019;DHT22;33786;48.690;9.562;2024-01-30T03:48:55;-0.90;99.90
48019;DHT22;33786;48.690;9.562;2024-01-30T03:51:22;-1.10;99.90
48019;DHT22;33786;48.690;9.562;2024-01-30T03:53:49;-1.00;99.90
48019;DHT22;33786;48.690;9.562;2024-01-30T03:56:16;-1.00;99.90
48019;DHT22;33786;48.690;9.562;2024-01-30T03:58:43;-1.00;99.90
48019;DHT22;33786;48.690;9.562;2024-01-30T04:01:15;-1.00;99.90
48019;DHT22;33786;48.690;9.562;2024-01-30T04:03:42;-1.10;99.90
48019;DHT22;33786;48.690;9.562;2024-01-30T04:06:11;-1.10;99.90
48019;DHT22;33786;48.690;9.562;2024-01-30T04:08:38;-1.10;99.90
48019;DHT22;33786;48.690;9.562;2024-01-30T04:11:05;-1.20;99.90
48019;DHT22;33786;48.690;9.562;2024-01-30T04:13:33;-1.20;99.90
48019;DHT22;33786;48.690;9.562;2024-01-30T04:16:00;-1.20;99.90
48019;DHT22;33786;48.690;9.562;2024-01-30T04:18:30;-1.20;99.90
48019;DHT22;33786;48.690;9.562;2024-01-30T04:20:57;-1.20;99.90
48019;DHT22;33786;48.690;9.562;2024-01-30T04:23:24;-1.30;99.90
48019;DHT22;33786;48.690;9.562;2024-01-30T04:25:51;-1.30;99.90
48019;DHT22;33786;48.690;9.562;2024-01-30T04:28:18;-1.30;99.90
48019;DHT22;33786;48.690;9.562;2024-01-30T04:30:45;-1.30;99.90
48019;DHT22;33786;48.690;9.562;2024-01-30T04:33:11;-1.30;99.90
48019;DHT22;33786;48.690;9.562;2024-01-30T04:35:38;-1.30;99.90
48019;DHT22;33786;48.690;9.562;2024-01-30T04:38:05;-1.40;99.90
48019;DHT22;33786;48.690;9.562;2024-01-30T04:40:32;-1.40;99.90
48019;DHT22;33786;48.690;9.562;2024-01-30T04:42:59;-1.40;99.90
48019;DHT22;33786;48.690;9.562;2024-01-30T04:45:26;-1.40;99.90
48019;DHT22;33786;48.690;9.562;2024-01-30T04:47:52;-1.40;99.90
48019;DHT22;33786;48.690;9.562;2024-01-30T04:50:19;-1.40;99.90
48019;DHT22;33786;48.690;9.562;2024-01-30T04:52:46;-1.40;99.90
48019;DHT22;33786;48.690;9.562;2024-01-30T04:55:13;-1.40;99.90
48019;DHT22;33786;48.690;9.562;2024-01-30T04:57:40;-1.50;99.90
48019;DHT22;33786;48.690;9.562;2024-01-30T05:00:07;-1.50;99.90
48019;DHT22;33786;48.690;9.562;2024-01-30T05:02:34;-1.50;99.90
48019;DHT22;33786;48.690;9.562;2024-01-30T05:05:01;-1.50;99.90
48019;DHT22;33786;48.690;9.562;2024-01-30T05:07:28;-1.50;99.90
48019;DHT22;33786;48.690;9.562;2024-01-30T05:09:55;-1.50;99.90
48019;DHT22;33786;48.690;9.562;2024-01-30T05:12:25;-1.50;99.90
48019;DHT22;33786;48.690;9.562;2024-01-30T05:14:52;-1.50;99.90
48019;DHT22;33786;48.690;9.562;2024-01-30T05:17:18;-1.50;99.90
48019;DHT22;33786;48.690;9.562;2024-01-30T05:19:45;-1.60;99.90
48019;DHT22;33786;48.690;9.562;2024-01-30T05:22:12;-1.60;99.90
48019;DHT22;33786;48.690;9.562;2024-01-30T05:24:42;-1.60;99.90
48019;DHT22;33786;48.690;9.562;2024-01-30T05:27:09;-1.50;99.90
48019;DHT22;33786;48.690;9.562;2024-01-30T05:29:36;-1.50;99.90
48019;DHT22;33786;48.690;9.562;2024-01-30T05:32:03;-1.60;99.90
48019;DHT22;33786;48.690;9.562;2024-01-30T05:34:32;-1.50;99.90
48019;DHT22;33786;48.690;9.562;2024-01-30T05:36:59;-1.50;99.90
48019;DHT22;33786;48.690;9.562;2024-01-30T05:39:26;-1.50;99.90
48019;DHT22;33786;48.690;9.562;2024-01-30T05:41:52;-1.50;99.90
48019;DHT22;33786;48.690;9.562;2024-01-30T05:44:19;-1.50;99.90
48019;DHT22;33786;48.690;9.562;2024-01-30T05:46:46;-1.50;99.90
48019;DHT22;33786;48.690;9.562;2024-01-30T05:49:13;-1.50;99.90
48019;DHT22;33786;48.690;9.562;2024-01-30T05:51:40;-1.50;99.90
48019;DHT22;33786;48.690;9.562;2024-01-30T05:54:07;-1.50;99.90
48019;DHT22;33786;48.690;9.562;2024-01-30T05:56:33;-1.60;99.90
48019;DHT22;33786;48.690;9.562;2024-01-30T05:59:00;-1.60;99.90
48019;DHT22;33786;48.690;9.562;2024-01-30T06:01:27;-1.50;99.90
48019;DHT22;33786;48.690;9.562;2024-01-30T06:03:56;-1.60;99.90
48019;DHT22;33786;48.690;9.562;2024-01-30T06:06:22;-1.50;99.90
48019;DHT22;33786;48.690;9.562;2024-01-30T06:08:49;-1.50;99.90
48019;DHT22;33786;48.690;9.562;2024-01-30T06:11:16;-1.50;99.90
48019;DHT22;33786;48.690;9.562;2024-01-30T06:13:43;-1.50;99.90
48019;DHT22;33786;48.690;9.562;2024-01-30T06:16:10;-1.50;99.90
48019;DHT22;33786;48.690;9.562;2024-01-30T06:18:38;-1.40;99.90
48019;DHT22;33786;48.690;9.562;2024-01-30T06:21:05;-1.40;99.90
48019;DHT22;33786;48.690;9.562;2024-01-30T06:23:34;-1.40;99.90
48019;DHT22;33786;48.690;9.562;2024-01-30T06:26:01;-1.40;99.90
48019;DHT22;33786;48.690;9.562;2024-01-30T06:28:27;-1.40;99.90
48019;DHT22;33786;48.690;9.562;2024-01-30T06:30:54;-1.40;99.90
48019;DHT22;33786;48.690;9.562;2024-01-30T06:33:21;-1.30;99.90
48019;DHT22;33786;48.690;9.562;2024-01-30T06:35:48;-1.30;99.90
48019;DHT22;33786;48.690;9.562;2024-01-30T06:38:15;-1.30;99.90
48019;DHT22;33786;48.690;9.562;2024-01-30T06:40:42;-1.30;99.90
48019;DHT22;33786;48.690;9.562;2024-01-30T06:43:09;-1.30;99.90
48019;DHT22;33786;48.690;9.562;2024-01-30T06:45:36;-1.30;99.90
48019;DHT22;33786;48.690;9.562;2024-01-30T06:48:04;-1.30;99.90
48019;DHT22;33786;48.690;9.562;2024-01-30T06:50:31;-1.30;99.90
48019;DHT22;33786;48.690;9.562;2024-01-30T06:52:58;-1.20;99.90
48019;DHT22;33786;48.690;9.562;2024-01-30T06:55:25;-1.10;99.90
48019;DHT22;33786;48.690;9.562;2024-01-30T06:57:51;-1.10;99.90
48019;DHT22;33786;48.690;9.562;2024-01-30T07:00:18;-1.00;99.90
48019;DHT22;33786;48.690;9.562;2024-01-30T07:02:46;-0.90;99.90
48019;DHT22;33786;48.690;9.562;2024-01-30T07:05:13;-0.80;99.90
48019;DHT22;33786;48.690;9.562;2024-01-30T07:07:41;-0.80;99.90
48019;DHT22;33786;48.690;9.562;2024-01-30T07:10:08;-0.70;99.90
48019;DHT22;33786;48.690;9.562;2024-01-30T07:12:35;-0.60;99.90
48019;DHT22;33786;48.690;9.562;2024-01-30T07:15:02;-0.50;99.90
48019;DHT22;33786;48.690;9.562;2024-01-30T07:17:30;-0.40;99.90
48019;DHT22;33786;48.690;9.562;2024-01-30T07:19:57;-0.30;99.90
48019;DHT22;33786;48.690;9.562;2024-01-30T07:22:24;-0.20;99.90
48019;DHT22;33786;48.690;9.562;2024-01-30T07:24:51;-0.10;99.90
48019;DHT22;33786;48.690;9.562;2024-01-30T07:27:19;0.00;99.90
48019;DHT22;33786;48.690;9.562;2024-01-30T07:29:45;0.20;99.90
48019;DHT22;33786;48.690;9.562;2024-01-30T07:32:12;0.40;99.90
48019;DHT22;33786;48.690;9.562;2024-01-30T07:34:39;0.60;99.90
48019;DHT22;33786;48.690;9.562;2024-01-30T07:37:24;0.90;99.90
48019;DHT22;33786;48.690;9.562;2024-01-30T07:39:51;1.60;99.90
48019;DHT22;33786;48.690;9.562;2024-01-30T07:42:18;2.60;99.90
48019;DHT22;33786;48.690;9.562;2024-01-30T07:44:45;4.00;99.90
48019;DHT22;33786;48.690;9.562;2024-01-30T07:47:11;5.30;99.90
48019;DHT22;33786;48.690;9.562;2024-01-30T07:49:38;6.50;99.40
48019;DHT22;33786;48.690;9.562;2024-01-30T07:52:05;7.30;97.30
48019;DHT22;33786;48.690;9.562;2024-01-30T07:54:33;7.90;95.80
48019;DHT22;33786;48.690;9.562;2024-01-30T07:57:01;8.10;95.00
48019;DHT22;33786;48.690;9.562;2024-01-30T07:59:27;8.30;94.50
48019;DHT22;33786;48.690;9.562;2024-01-30T08:01:54;7.90;94.50
48019;DHT22;33786;48.690;9.562;2024-01-30T08:04:21;7.50;95.40
48019;DHT22;33786;48.690;9.562;2024-01-30T08:06:48;7.40;95.80
48019;DHT22;33786;48.690;9.562;2024-01-30T08:09:15;7.50;95.80
48019;DHT22;33786;48.690;9.562;2024-01-30T08:11:42;8.10;95.30
48019;DHT22;33786;48.690;9.562;2024-01-30T08:14:09;8.40;94.60
48019;DHT22;33786;48.690;9.562;2024-01-30T08:16:36;8.70;93.90
48019;DHT22;33786;48.690;9.562;2024-01-30T08:19:03;8.70;93.90
48019;DHT22;33786;48.690;9.562;2024-01-30T08:21:30;8.30;94.20
48019;DHT22;33786;48.690;9.562;2024-01-30T08:23:57;8.30;94.30
48019;DHT22;33786;48.690;9.562;2024-01-30T08:26:24;8.10;94.30
48019;DHT22;33786;48.690;9.562;2024-01-30T08:28:50;7.90;94.90
48019;DHT22;33786;48.690;9.562;2024-01-30T08:31:20;7.80;94.80
48019;DHT22;33786;48.690;9.562;2024-01-30T08:33:47;7.60;95.20
48019;DHT22;33786;48.690;9.562;2024-01-30T08:36:16;7.60;95.00
48019;DHT22;33786;48.690;9.562;2024-01-30T08:38:43;7.60;95.10
48019;DHT22;33786;48.690;9.562;2024-01-30T08:41:10;7.60;95.80
48019;DHT22;33786;48.690;9.562;2024-01-30T08:43:37;8.10;95.10
48019;DHT22;33786;48.690;9.562;2024-01-30T08:46:04;8.80;94.00
48019;DHT22;33786;48.690;9.562;2024-01-30T08:48:31;9.30;93.40
48019;DHT22;33786;48.690;9.562;2024-01-30T08:50:58;10.10;92.40
48019;DHT22;33786;48.690;9.562;2024-01-30T08:53:25;11.00;91.20
48019;DHT22;33786;48.690;9.562;2024-01-30T08:55:52;11.20;90.70
48019;DHT22;33786;48.690;9.562;2024-01-30T08:58:19;11.80;88.60
48019;DHT22;33786;48.690;9.562;2024-01-30T09:00:46;11.80;88.50
48019;DHT22;33786;48.690;9.562;2024-01-30T09:03:13;11.50;88.90
48019;DHT22;33786;48.690;9.562;2024-01-30T09:05:40;11.70;88.60
48019;DHT22;33786;48.690;9.562;2024-01-30T09:08:07;11.90;88.10
48019;DHT22;33786;48.690;9.562;2024-01-30T09:10:34;12.10;87.70
48019;DHT22;33786;48.690;9.562;2024-01-30T09:13:01;12.70;85.40
48019;DHT22;33786;48.690;9.562;2024-01-30T09:15:27;13.20;84.30
48019;DHT22;33786;48.690;9.562;2024-01-30T09:17:54;13.70;82.90
48019;DHT22;33786;48.690;9.562;2024-01-30T09:20:21;14.20;81.40
48019;DHT22;33786;48.690;9.562;2024-01-30T09:22:49;14.70;79.90
48019;DHT22;33786;48.690;9.562;2024-01-30T09:25:16;14.70;78.40
48019;DHT22;33786;48.690;9.562;2024-01-30T09:27:46;14.90;78.00
48019;DHT22;33786;48.690;9.562;2024-01-30T09:30:13;14.80;78.50
48019;DHT22;33786;48.690;9.562;2024-01-30T09:32:40;14.90;78.30
48019;DHT22;33786;48.690;9.562;2024-01-30T09:35:07;14.60;78.10
48019;DHT22;33786;48.690;9.562;2024-01-30T09:37:34;14.60;77.80
48019;DHT22;33786;48.690;9.562;2024-01-30T09:40:01;14.20;79.00
48019;DHT22;33786;48.690;9.562;2024-01-30T09:42:34;14.10;79.10
48019;DHT22;33786;48.690;9.562;2024-01-30T09:45:03;14.30;79.50
48019;DHT22;33786;48.690;9.562;2024-01-30T09:47:32;14.00;79.40
48019;DHT22;33786;48.690;9.562;2024-01-30T09:50:00;14.20;78.40
48019;DHT22;33786;48.690;9.562;2024-01-30T09:52:29;14.30;79.20
48019;DHT22;33786;48.690;9.562;2024-01-30T09:54:56;14.30;78.60
48019;DHT22;33786;48.690;9.562;2024-01-30T09:57:26;14.90;77.70
48019;DHT22;33786;48.690;9.562;2024-01-30T09:59:53;14.90;75.70
48019;DHT22;33786;48.690;9.562;2024-01-30T10:02:21;14.70;76.60
48019;DHT22;33786;48.690;9.562;2024-01-30T10:04:49;14.30;77.80
48019;DHT22;33786;48.690;9.562;2024-01-30T10:07:20;13.90;78.60
48019;DHT22;33786;48.690;9.562;2024-01-30T10:09:47;13.50;79.40
48019;DHT22;33786;48.690;9.562;2024-01-30T10:12:15;13.30;80.50
48019;DHT22;33786;48.690;9.562;2024-01-30T10:14:43;13.30;81.00
48019;DHT22;33786;48.690;9.562;2024-01-30T10:17:11;13.10;80.70
48019;DHT22;33786;48.690;9.562;2024-01-30T10:19:50;13.90;79.10
48019;DHT22;33786;48.690;9.562;2024-01-30T10:22:18;14.00;79.30
48019;DHT22;33786;48.690;9.562;2024-01-30T10:24:46;14.00;78.80
48019;DHT22;33786;48.690;9.562;2024-01-30T10:27:13;13.60;79.30
48019;DHT22;33786;48.690;9.562;2024-01-30T10:29:39;13.20;81.00
48019;DHT22;33786;48.690;9.562;2024-01-30T10:32:07;13.30;81.50
48019;DHT22;33786;48.690;9.562;2024-01-30T10:34:34;13.00;81.40
48019;DHT22;33786;48.690;9.562;2024-01-30T10:37:10;12.30;82.20
48019;DHT22;33786;48.690;9.562;2024-01-30T10:39:45;12.30;82.30
48019;DHT22;33786;48.690;9.562;2024-01-30T10:42:17;11.90;84.30
48019;DHT22;33786;48.690;9.562;2024-01-30T10:45:06;11.80;84.90
48019;DHT22;33786;48.690;9.562;2024-01-30T10:47:36;12.00;84.40
48019;DHT22;33786;48.690;9.562;2024-01-30T10:50:03;12.70;82.80
48019;DHT22;33786;48.690;9.562;2024-01-30T10:52:31;13.50;81.60
48019;DHT22;33786;48.690;9.562;2024-01-30T10:54:59;13.50;81.50
48019;DHT22;33786;48.690;9.562;2024-01-30T10:57:26;13.50;81.20
48019;DHT22;33786;48.690;9.562;2024-01-30T10:59:56;13.30;81.80
48019;DHT22;33786;48.690;9.562;2024-01-30T11:02:24;13.10;82.10
48019;DHT22;33786;48.690;9.562;2024-01-30T11:04:59;13.40;82.90
48019;DHT22;33786;48.690;9.562;2024-01-30T11:07:29;13.00;82.70
48019;DHT22;33786;48.690;9.562;2024-01-30T11:12:39;12.60;84.20
48019;DHT22;33786;48.690;9.562;2024-01-30T11:15:13;12.60;84.20
48019;DHT22;33786;48.690;9.562;2024-01-30T11:17:51;12.50;84.10
48019;DHT22;33786;48.690;9.562;2024-01-30T11:20:26;12.20;85.80
48019;DHT22;33786;48.690;9.562;2024-01-30T11:22:55;12.10;86.20
48019;DHT22;33786;48.690;9.562;2024-01-30T11:25:23;12.00;86.20
48019;DHT22;33786;48.690;9.562;2024-01-30T11:27:52;12.00;88.50
48019;DHT22;33786;48.690;9.562;2024-01-30T11:30:30;12.10;89.50
48019;DHT22;33786;48.690;9.562;2024-01-30T11:33:07;12.10;89.60
48019;DHT22;33786;48.690;9.562;2024-01-30T11:35:36;12.10;90.10
48019;DHT22;33786;48.690;9.562;2024-01-30T11:38:04;12.00;90.70
48019;DHT22;33786;48.690;9.562;2024-01-30T11:40:31;12.00;90.50
48019;DHT22;33786;48.690;9.562;2024-01-30T11:43:01;11.80;90.60
48019;DHT22;33786;48.690;9.562;2024-01-30T11:45:28;12.00;90.50
48019;DHT22;33786;48.690;9.562;2024-01-30T11:47:55;12.20;89.60
48019;DHT22;33786;48.690;9.562;2024-01-30T11:50:22;12.50;90.20
48019;DHT22;33786;48.690;9.562;2024-01-30T11:52:50;12.80;89.70
48019;DHT22;33786;48.690;9.562;2024-01-30T11:55:17;13.20;88.10
48019;DHT22;33786;48.690;9.562;2024-01-30T11:57:47;13.30;86.20
48019;DHT22;33786;48.690;9.562;2024-01-30T12:00:17;13.40;85.70
48019;DHT22;33786;48.690;9.562;2024-01-30T12:02:53;13.50;84.30
48019;DHT22;33786;48.690;9.562;2024-01-30T12:05:23;13.60;83.80
48019;DHT22;33786;48.690;9.562;2024-01-30T12:07:50;13.50;84.60
48019;DHT22;33786;48.690;9.562;2024-01-30T12:10:18;13.50;86.10
48019;DHT22;33786;48.690;9.562;2024-01-30T12:12:48;13.40;87.10
48019;DHT22;33786;48.690;9.562;2024-01-30T12:15:15;13.30;88.80
48019;DHT22;33786;48.690;9.562;2024-01-30T12:17:42;13.20;87.60
48019;DHT22;33786;48.690;9.562;2024-01-30T12:20:13;13.00;87.30
48019;DHT22;33786;48.690;9.562;2024-01-30T12:22:43;12.90;87.90
48019;DHT22;33786;48.690;9.562;2024-01-30T12:25:15;12.60;87.60
48019;DHT22;33786;48.690;9.562;2024-01-30T12:27:47;12.60;89.10
48019;DHT22;33786;48.690;9.562;2024-01-30T12:30:18;12.50;89.50
48019;DHT22;33786;48.690;9.562;2024-01-30T12:32:47;12.30;90.20
48019;DHT22;33786;48.690;9.562;2024-01-30T12:35:18;12.10;89.90
48019;DHT22;33786;48.690;9.562;2024-01-30T12:37:47;12.00;90.10
48019;DHT22;33786;48.690;9.562;2024-01-30T12:40:15;12.00;90.10
48019;DHT22;33786;48.690;9.562;2024-01-30T12:42:43;12.10;89.80
48019;DHT22;33786;48.690;9.562;2024-01-30T12:45:13;12.10;89.70
48019;DHT22;33786;48.690;9.562;2024-01-30T12:47:42;12.10;88.60
48019;DHT22;33786;48.690;9.562;2024-01-30T12:50:09;12.10;88.60
48019;DHT22;33786;48.690;9.562;2024-01-30T12:52:36;12.20;88.60
48019;DHT22;33786;48.690;9.562;2024-01-30T12:55:04;12.20;88.70
48019;DHT22;33786;48.690;9.562;2024-01-30T12:57:31;12.20;88.80
48019;DHT22;33786;48.690;9.562;2024-01-30T12:59:58;12.20;87.60
48019;DHT22;33786;48.690;9.562;2024-01-30T13:02:25;12.00;88.40
48019;DHT22;33786;48.690;9.562;2024-01-30T13:04:53;11.80;88.60
48019;DHT22;33786;48.690;9.562;2024-01-30T13:07:20;11.70;88.10
48019;DHT22;33786;48.690;9.562;2024-01-30T13:09:47;11.70;89.40
48019;DHT22;33786;48.690;9.562;2024-01-30T13:12:14;11.70;90.00
48019;DHT22;33786;48.690;9.562;2024-01-30T13:14:41;11.70;89.90
48019;DHT22;33786;48.690;9.562;2024-01-30T13:17:08;11.80;90.00
48019;DHT22;33786;48.690;9.562;2024-01-30T13:19:35;12.00;90.20
48019;DHT22;33786;48.690;9.562;2024-01-30T13:22:02;12.10;90.00
48019;DHT22;33786;48.690;9.562;2024-01-30T13:24:30;12.10;89.40
48019;DHT22;33786;48.690;9.562;2024-01-30T13:26:57;12.10;88.90
48019;DHT22;33786;48.690;9.562;2024-01-30T13:29:24;12.10;89.50
48019;DHT22;33786;48.690;9.562;2024-01-30T13:31:51;12.10;90.00
48019;DHT22;33786;48.690;9.562;2024-01-30T13:34:18;12.10;90.10
48019;DHT22;33786;48.690;9.562;2024-01-30T13:36:45;12.10;89.80
48019;DHT22;33786;48.690;9.562;2024-01-30T13:39:12;12.10;89.20
48019;DHT22;33786;48.690;9.562;2024-01-30T13:41:39;12.10;89.60
48019;DHT22;33786;48.690;9.562;2024-01-30T13:44:06;12.20;89.90
48019;DHT22;33786;48.690;9.562;2024-01-30T13:46:33;12.30;88.90
48019;DHT22;33786;48.690;9.562;2024-01-30T13:49:00;12.40;88.30
48019;DHT22;33786;48.690;9.562;2024-01-30T13:51:27;12.40;88.50
48019;DHT22;33786;48.690;9.562;2024-01-30T13:53:54;12.50;88.70
48019;DHT22;33786;48.690;9.562;2024-01-30T13:56:21;12.50;88.20
48019;DHT22;33786;48.690;9.562;2024-01-30T13:58:48;12.50;88.10
48019;DHT22;33786;48.690;9.562;2024-01-30T14:01:16;12.50;88.00
48019;DHT22;33786;48.690;9.562;2024-01-30T14:03:44;12.40;88.10
48019;DHT22;33786;48.690;9.562;2024-01-30T14:06:11;12.40;88.50
48019;DHT22;33786;48.690;9.562;2024-01-30T14:08:39;12.50;88.10
48019;DHT22;33786;48.690;9.562;2024-01-30T14:11:09;12.50;88.20
48019;DHT22;33786;48.690;9.562;2024-01-30T14:13:36;12.40;88.00
48019;DHT22;33786;48.690;9.562;2024-01-30T14:16:03;12.30;88.70
48019;DHT22;33786;48.690;9.562;2024-01-30T14:18:33;12.10;88.30
48019;DHT22;33786;48.690;9.562;2024-01-30T14:20:59;12.00;89.10
48019;DHT22;33786;48.690;9.562;2024-01-30T14:23:26;11.90;88.70
48019;DHT22;33786;48.690;9.562;2024-01-30T14:25:53;11.80;89.00
48019;DHT22;33786;48.690;9.562;2024-01-30T14:28:20;11.80;89.40
48019;DHT22;33786;48.690;9.562;2024-01-30T14:30:47;11.70;88.60
48019;DHT22;33786;48.690;9.562;2024-01-30T14:33:14;11.70;89.00
48019;DHT22;33786;48.690;9.562;2024-01-30T14:35:41;11.60;89.40
48019;DHT22;33786;48.690;9.562;2024-01-30T14:38:08;11.60;90.00
48019;DHT22;33786;48.690;9.562;2024-01-30T14:40:34;11.60;90.10
48019;DHT22;33786;48.690;9.562;2024-01-30T14:43:02;11.60;90.00
48019;DHT22;33786;48.690;9.562;2024-01-30T14:45:30;11.70;90.30
48019;DHT22;33786;48.690;9.562;2024-01-30T14:47:58;11.60;90.80
48019;DHT22;33786;48.690;9.562;2024-01-30T14:50:26;11.60;91.60
48019;DHT22;33786;48.690;9.562;2024-01-30T14:52:56;11.60;91.60
48019;DHT22;33786;48.690;9.562;2024-01-30T14:55:23;11.60;91.30
48019;DHT22;33786;48.690;9.562;2024-01-30T14:57:51;11.60;91.10
48019;DHT22;33786;48.690;9.562;2024-01-30T15:00:18;11.50;91.80
48019;DHT22;33786;48.690;9.562;2024-01-30T15:02:46;11.50;92.20
48019;DHT22;33786;48.690;9.562;2024-01-30T15:05:13;11.30;93.30
48019;DHT22;33786;48.690;9.562;2024-01-30T15:07:41;11.30;93.20
48019;DHT22;33786;48.690;9.562;2024-01-30T15:10:08;11.20;93.30
48019;DHT22;33786;48.690;9.562;2024-01-30T15:12:37;11.10;92.50
48019;DHT22;33786;48.690;9.562;2024-01-30T15:15:07;11.00;92.80
48019;DHT22;33786;48.690;9.562;2024-01-30T15:17:34;10.90;92.90
48019;DHT22;33786;48.690;9.562;2024-01-30T15:20:01;10.90;93.10
48019;DHT22;33786;48.690;9.562;2024-01-30T15:22:30;10.80;93.70
48019;DHT22;33786;48.690;9.562;2024-01-30T15:24:57;10.70;93.90
48019;DHT22;33786;48.690;9.562;2024-01-30T15:27:24;10.60;94.10
48019;DHT22;33786;48.690;9.562;2024-01-30T15:29:55;10.40;94.40
48019;DHT22;33786;48.690;9.562;2024-01-30T15:32:21;10.30;94.80
48019;DHT22;33786;48.690;9.562;2024-01-30T15:34:48;10.20;95.20
48019;DHT22;33786;48.690;9.562;2024-01-30T15:37:15;10.10;95.20